Main page
METAR-TAF:

METAR-TAF

Airports :

Kermanshah, Iran

Kermanshah Airport

latitude: 34-16N, longitude: 047-07E, elevation: 1320 m

Current weather observation

The report was made 18 minutes ago, at 16:00 UTC
Wind 6 kt from the West/Northwest
Temperature 9°C
Humidity 25%
Pressure 1025 hPa
Visibility 10 km or more
no clouds below 1500 m and no cumulonimbus

METAR: OICC 181600Z 30006KT CAVOK 09/M10 Q1025 A3028

Time: 19:48 (16:18 UTC)


TAF: missing

Weather observations and forecasts of more than 4000 airports (METAR and TAF reports).

The available stations are represented by yellow and red dots on the map.

Hover mouse over dot to see the name of the station.

Then click to see weather observations and forecasts.

To change the map : click on the green buttons with a black cross to zoom in, on the green button with a dash to zoom out, or on the green arrows for adjacent maps.


METAR-TAF: